Time;durP1;ratioP1;P1;durP2;ratioP2;P2;SDS_P1;SDS_P2;PMS_P1;PMS_P2;Temp;Humidity;BMP_temperature;BMP_pressure;BME280_temperature;BME280_humidity;BME280_pressure;Samples;Min_cycle;Max_cycle;Signal;HPM_P1;HPM_P2
2021/09/13 00:01:59;;;;;;;11.12;9.63;;;;;;;12.72;71.90;99406.02;1732545;80;21041;-55
2021/09/13 00:04:25;;;;;;;12.37;10.32;;;;;;;12.70;71.98;99406.10;1734182;80;21026;-55
2021/09/13 00:06:51;;;;;;;14.98;10.40;;;;;;;12.69;72.07;99404.36;1732440;80;21138;-55
2021/09/13 00:09:18;;;;;;;16.57;10.10;;;;;;;12.69;72.08;99400.79;1733728;80;21058;-55
2021/09/13 00:11:46;;;;;;;13.40;11.45;;;;;;;12.68;72.03;99399.92;1733514;80;21426;-55
2021/09/13 00:14:14;;;;;;;12.73;11.43;;;;;;;12.66;72.05;99399.17;1676097;83;21465;-55
2021/09/13 00:16:43;;;;;;;13.50;11.73;;;;;;;12.63;72.07;99405.23;1673252;83;21128;-55
2021/09/13 00:19:11;;;;;;;18.05;9.63;;;;;;;12.60;72.04;99400.88;1703038;82;21179;-55
2021/09/13 00:21:39;;;;;;;14.58;9.95;;;;;;;12.57;72.11;99394.34;1688087;82;21124;-55
2021/09/13 00:24:07;;;;;;;10.32;9.35;;;;;;;12.56;72.21;99393.08;1693622;82;20946;-55
2021/09/13 00:26:33;;;;;;;12.10;9.48;;;;;;;12.56;72.21;99398.00;1689659;82;20981;-55
2021/09/13 00:29:02;;;;;;;9.55;7.80;;;;;;;12.56;72.16;99398.00;1687455;82;20942;-55
2021/09/13 00:31:30;;;;;;;12.60;9.60;;;;;;;12.55;72.17;99394.91;1687143;82;21155;-55
2021/09/13 00:33:58;;;;;;;15.80;10.58;;;;;;;12.55;72.29;99391.34;1667783;83;21085;-55
2021/09/13 00:36:27;;;;;;;12.82;10.18;;;;;;;12.54;72.32;99390.95;1669301;83;22247;-54
2021/09/13 00:38:57;;;;;;;13.43;10.30;;;;;;;12.53;72.28;99391.42;1669916;83;20966;-54
2021/09/13 00:41:24;;;;;;;13.50;11.10;;;;;;;12.51;72.15;99392.87;1664165;83;21069;-55
2021/09/13 00:43:52;;;;;;;14.35;9.63;;;;;;;12.47;72.25;99387.28;1649790;84;21073;-54
2021/09/13 00:46:19;;;;;;;13.98;9.35;;;;;;;12.44;72.28;99390.16;1646472;84;21009;-54
2021/09/13 00:48:46;;;;;;;12.95;8.33;;;;;;;12.43;72.26;99386.20;1698353;82;21094;-54
2021/09/13 00:51:14;;;;;;;11.78;8.50;;;;;;;12.42;72.15;99390.73;1699271;82;20923;-54
2021/09/13 00:53:41;;;;;;;8.30;7.05;;;;;;;12.40;72.17;99382.36;1699232;82;20882;-54
2021/09/13 00:56:07;;;;;;;12.85;7.50;;;;;;;12.39;72.33;99381.97;1699291;82;20955;-54
2021/09/13 00:58:37;;;;;;;10.38;8.33;;;;;;;12.38;72.36;99386.98;1699596;82;20927;-54
2021/09/13 01:01:04;;;;;;;11.73;9.63;;;;;;;12.36;72.19;99386.20;1699358;82;21090;-54
2021/09/13 01:03:33;;;;;;;13.28;8.33;;;;;;;12.34;72.10;99387.64;1698792;82;20967;-54
2021/09/13 01:05:59;;;;;;;11.95;9.55;;;;;;;12.34;72.16;99384.94;1699599;82;20944;-54
2021/09/13 01:08:26;;;;;;;11.90;10.68;;;;;;;12.32;72.23;99380.62;1700486;82;20994;-54
2021/09/13 01:10:55;;;;;;;9.08;8.10;;;;;;;12.30;72.24;99386.11;1699389;82;20924;-54
2021/09/13 01:13:24;;;;;;;11.50;8.83;;;;;;;12.27;72.08;99377.31;1697850;82;21060;-54
2021/09/13 01:15:50;;;;;;;10.23;8.53;;;;;;;12.23;72.12;99382.05;1700856;82;21085;-54
2021/09/13 01:18:19;;;;;;;14.18;7.75;;;;;;;12.21;72.19;99383.96;1696476;82;20973;-55
2021/09/13 01:20:45;;;;;;;11.18;8.13;;;;;;;12.20;72.27;99382.70;1698817;82;20891;-54
2021/09/13 01:23:26;;;;;;;7.42;6.70;;;;;;;12.18;72.29;99381.44;1701811;82;20927;-54
2021/09/13 01:25:54;;;;;;;8.55;7.70;;;;;;;12.19;72.14;99378.26;1695409;82;21167;-54
2021/09/13 01:28:22;;;;;;;10.53;8.90;;;;;;;12.17;72.13;99377.48;1699842;82;21266;-54
2021/09/13 01:30:49;;;;;;;12.40;8.50;;;;;;;12.15;72.15;99381.64;1698050;82;21912;-54
2021/09/13 01:33:15;;;;;;;9.93;8.73;;;;;;;12.14;72.20;99382.60;1693345;82;21604;-54
2021/09/13 01:35:42;;;;;;;11.73;9.05;;;;;;;12.12;72.21;99381.34;1676339;82;20947;-54
2021/09/13 01:38:09;;;;;;;11.93;9.58;;;;;;;12.09;72.12;99379.30;1696838;82;22020;-54
2021/09/13 01:40:36;;;;;;;8.98;7.92;;;;;;;12.05;72.06;99378.63;1673327;82;22913;-54
2021/09/13 01:43:03;;;;;;;11.88;8.93;;;;;;;12.03;72.02;99385.94;1708086;82;21362;-54
2021/09/13 01:45:32;;;;;;;8.35;6.75;;;;;;;12.02;72.04;99388.24;1710920;82;21074;-53
2021/09/13 01:47:59;;;;;;;8.80;7.37;;;;;;;12.00;72.07;99382.55;1707185;82;21092;-54
2021/09/13 01:50:25;;;;;;;7.05;6.45;;;;;;;11.99;72.02;99384.88;1683772;82;22612;-54
2021/09/13 01:52:52;;;;;;;9.03;7.75;;;;;;;11.99;71.98;99388.92;1711812;82;21109;-54
2021/09/13 01:55:20;;;;;;;9.08;8.23;;;;;;;11.98;72.00;99385.36;1709736;82;21086;-54
2021/09/13 01:57:48;;;;;;;8.90;8.10;;;;;;;11.95;72.00;99385.53;1709442;82;21112;-55
2021/09/13 02:00:15;;;;;;;9.33;8.03;;;;;;;11.93;71.96;99387.44;1709471;82;21057;-54
2021/09/13 02:02:43;;;;;;;9.78;8.03;;;;;;;11.90;71.84;99390.34;1707845;82;21057;-53
2021/09/13 02:05:12;;;;;;;10.75;8.18;;;;;;;11.86;71.97;99387.42;1707415;82;22660;-53
2021/09/13 02:07:40;;;;;;;7.50;6.65;;;;;;;11.81;71.94;99382.80;1705378;82;21510;-53
2021/09/13 02:10:08;;;;;;;7.80;6.03;;;;;;;11.78;71.96;99391.05;1706961;82;21513;-54
2021/09/13 02:12:36;;;;;;;8.68;7.03;;;;;;;11.75;71.93;99385.83;1709941;82;20877;-54
2021/09/13 02:15:04;;;;;;;6.90;6.10;;;;;;;11.72;72.08;99384.64;1713194;82;21173;-54
2021/09/13 02:17:31;;;;;;;8.33;6.83;;;;;;;11.70;72.16;99387.91;1683483;82;21002;-53
2021/09/13 02:19:58;;;;;;;10.80;7.50;;;;;;;11.69;72.25;99387.03;1709820;82;21118;-54
2021/09/13 02:22:24;;;;;;;9.35;6.65;;;;;;;11.69;72.39;99382.12;1710781;82;21105;-54
2021/09/13 02:24:54;;;;;;;7.78;7.08;;;;;;;11.69;72.56;99379.42;1704831;82;21077;-52
2021/09/13 02:27:22;;;;;;;8.08;6.97;;;;;;;11.70;72.71;99386.08;1707183;82;21117;-52
2021/09/13 02:29:48;;;;;;;12.13;8.18;;;;;;;11.70;72.80;99386.55;1706836;82;21495;-54
2021/09/13 02:32:15;;;;;;;9.35;8.18;;;;;;;11.69;72.65;99388.38;1705769;82;21157;-53
2021/09/13 02:34:41;;;;;;;11.75;7.35;;;;;;;11.67;72.59;99385.38;1710065;82;21081;-52
2021/09/13 02:37:07;;;;;;;8.48;6.87;;;;;;;11.64;72.75;99388.27;1707345;82;21073;-52
2021/09/13 02:39:36;;;;;;;11.45;6.87;;;;;;;11.63;73.00;99389.23;1708179;82;21099;-52
2021/09/13 02:42:03;;;;;;;6.87;6.25;;;;;;;11.63;73.13;99385.19;1704936;82;21129;-52
2021/09/13 02:44:29;;;;;;;7.72;6.85;;;;;;;11.62;73.04;99384.31;1702564;82;22734;-54
2021/09/13 02:46:57;;;;;;;8.63;6.30;;;;;;;11.64;73.05;99384.23;1703915;82;21378;-54
2021/09/13 02:49:24;;;;;;;11.88;7.85;;;;;;;11.63;73.17;99390.09;1702270;82;21468;-53
2021/09/13 02:51:51;;;;;;;11.03;6.67;;;;;;;11.62;73.33;99387.00;1702989;82;21581;-54
2021/09/13 02:54:17;;;;;;;9.58;7.28;;;;;;;11.63;73.44;99387.88;1701122;82;21265;-52
2021/09/13 02:56:46;;;;;;;8.45;7.65;;;;;;;11.63;73.52;99390.57;1700829;82;21122;-54
2021/09/13 02:59:13;;;;;;;8.15;7.35;;;;;;;11.62;73.51;99390.17;1703610;82;22044;-53
2021/09/13 03:01:40;;;;;;;9.03;7.78;;;;;;;11.61;73.44;99390.66;1697985;82;21065;-53
2021/09/13 03:04:06;;;;;;;6.72;6.12;;;;;;;11.60;73.38;99392.09;1704497;82;21114;-54
2021/09/13 03:06:33;;;;;;;10.65;6.85;;;;;;;11.58;73.34;99388.60;1704552;82;20998;-54
2021/09/13 03:09:00;;;;;;;10.25;6.62;;;;;;;11.57;73.40;99388.24;1702444;82;20996;-54
2021/09/13 03:11:28;;;;;;;8.88;6.45;;;;;;;11.55;73.51;99380.72;1703053;82;21559;-53
2021/09/13 03:13:55;;;;;;;8.23;7.28;;;;;;;11.54;73.39;99389.75;1702938;82;21029;-54
2021/09/13 03:16:21;;;;;;;11.48;7.37;;;;;;;11.54;73.34;99389.28;1704066;82;22825;-54
2021/09/13 03:18:50;;;;;;;8.45;7.40;;;;;;;11.53;73.43;99386.66;1702350;82;21428;-53
2021/09/13 03:21:16;;;;;;;12.47;7.87;;;;;;;11.53;73.54;99390.71;1702643;82;21543;-54
2021/09/13 03:23:43;;;;;;;13.65;6.72;;;;;;;11.52;73.56;99387.62;1702707;82;21094;-53
2021/09/13 03:26:10;;;;;;;12.28;7.62;;;;;;;11.52;73.46;99391.66;1702870;82;21010;-52
2021/09/13 03:28:38;;;;;;;9.95;6.67;;;;;;;11.51;73.40;99388.58;1702789;82;21550;-54
2021/09/13 03:31:04;;;;;;;6.45;5.85;;;;;;;11.48;73.39;99383.37;1702093;82;21716;-53
2021/09/13 03:33:32;;;;;;;10.00;5.80;;;;;;;11.48;73.47;99392.81;1700850;82;21464;-52
2021/09/13 03:35:59;;;;;;;8.53;5.22;;;;;;;11.48;73.41;99392.81;1704878;82;21108;-55
2021/09/13 03:38:26;;;;;;;8.25;5.75;;;;;;;11.46;73.40;99390.20;1704020;82;21113;-54
2021/09/13 03:42:09;;;;;;;9.27;6.10;;;;;;;11.50;73.40;99387.70;1770726;78;23000;-52
2021/09/13 03:44:35;;;;;;;7.12;6.40;;;;;;;11.46;73.45;99392.02;1741389;80;20987;-54
2021/09/13 03:47:04;;;;;;;10.75;7.62;;;;;;;11.44;73.49;99389.41;1735979;80;21162;-54
2021/09/13 03:49:35;;;;;;;13.22;6.67;;;;;;;11.44;73.51;99384.50;1736243;80;22532;-55
2021/09/13 03:52:02;;;;;;;8.23;5.83;;;;;;;11.43;73.61;99379.59;1735749;80;20989;-55
2021/09/13 03:54:28;;;;;;;6.03;5.15;;;;;;;11.44;73.73;99387.20;1743421;80;21609;-54
2021/09/13 03:56:55;;;;;;;7.60;5.80;;;;;;;11.45;73.75;99383.55;1743171;80;21429;-54
2021/09/13 03:59:22;;;;;;;4.75;4.35;;;;;;;11.47;73.78;99380.30;1741462;80;21082;-55
2021/09/13 04:01:49;;;;;;;7.00;5.08;;;;;;;11.49;73.89;99379.70;1743106;80;20946;-54
2021/09/13 04:04:16;;;;;;;5.12;4.67;;;;;;;11.52;73.99;99383.09;1712592;81;20958;-54
2021/09/13 04:06:48;;;;;;;5.92;5.42;;;;;;;11.57;74.12;99385.55;1710972;81;21616;-53
2021/09/13 04:11:56;;;;;;;9.03;6.55;;;;;;;11.61;74.29;99385.74;1683365;83;21117;-52
2021/09/13 04:14:29;;;;;;;10.30;6.60;;;;;;;11.64;74.34;99386.92;1631133;82;21070;-53
2021/09/13 04:16:57;;;;;;;6.97;6.35;;;;;;;11.65;74.36;99392.20;1695638;82;21060;-54
2021/09/13 04:19:33;;;;;;;8.83;6.58;;;;;;;11.68;74.38;99390.68;1687303;82;21070;-52
2021/09/13 04:22:18;;;;;;;;;;;;;;;11.71;74.38;99399.95;1689390;82;21057;-54
2021/09/13 04:24:46;;;;;;;5.93;4.90;;;;;;;11.74;74.47;99401.58;1654738;83;21000;-54
2021/09/13 04:27:30;;;;;;;9.95;5.17;;;;;;;11.75;74.49;99396.13;1687761;82;21069;-52
2021/09/13 04:29:59;;;;;;;7.30;5.05;;;;;;;11.78;74.60;99395.09;1690620;82;21030;-54
2021/09/13 04:32:35;;;;;;;5.60;4.90;;;;;;;11.83;74.66;99403.77;1685682;82;21156;-53
2021/09/13 04:35:20;;;;;;;7.97;4.85;;;;;;;11.90;75.00;99397.56;1675530;83;21141;-54
2021/09/13 04:37:50;;;;;;;8.20;4.92;;;;;;;12.04;75.35;99399.81;1666707;84;21809;-55
2021/09/13 04:40:36;;;;;;;12.18;7.00;;;;;;;12.22;75.33;99397.84;1596919;86;22499;-53
2021/09/13 04:43:21;;;;;;;7.33;5.72;;;;;;;12.40;75.03;99395.38;1652572;84;21087;-53
2021/09/13 04:45:55;;;;;;;7.20;5.92;;;;;;;12.59;74.70;99392.91;1675325;81;21109;-53
2021/09/13 04:48:42;;;;;;;8.55;6.15;;;;;;;12.72;74.69;99385.76;1707542;81;21098;-53
2021/09/13 04:51:13;;;;;;;11.08;6.58;;;;;;;12.82;74.75;99393.19;1696765;81;21131;-53
2021/09/13 04:54:00;;;;;;;9.35;5.30;;;;;;;12.89;74.87;99389.61;1711108;81;21750;-53
2021/09/13 04:56:27;;;;;;;6.22;5.62;;;;;;;12.99;75.08;99388.07;1712111;81;21081;-54
2021/09/13 04:58:53;;;;;;;7.95;5.47;;;;;;;13.06;75.34;99384.00;1711879;81;21105;-54
2021/09/13 05:01:20;;;;;;;6.72;5.15;;;;;;;13.16;75.68;99388.38;1718465;81;22268;-52
2021/09/13 05:03:47;;;;;;;10.55;5.85;;;;;;;13.27;75.96;99384.47;1658519;84;21432;-53
2021/09/13 05:06:15;;;;;;;7.53;5.87;;;;;;;13.39;76.22;99382.33;1712611;81;21038;-54
2021/09/13 05:08:41;;;;;;;7.67;6.35;;;;;;;13.55;76.40;99376.78;1711332;81;21043;-53
2021/09/13 05:11:07;;;;;;;11.40;7.50;;;;;;;13.69;76.50;99379.94;1706586;81;21560;-53
2021/09/13 05:13:34;;;;;;;9.13;6.83;;;;;;;13.83;76.48;99377.16;1709504;81;21001;-52
2021/09/13 05:16:01;;;;;;;9.08;6.90;;;;;;;13.97;76.45;99380.66;1707936;81;22124;-54
2021/09/13 05:18:29;;;;;;;6.85;6.15;;;;;;;14.11;76.51;99378.87;1714034;81;21069;-54
2021/09/13 05:20:56;;;;;;;6.25;5.65;;;;;;;14.22;76.59;99374.43;1705151;81;21054;-55
2021/09/13 05:23:24;;;;;;;7.30;6.58;;;;;;;14.47;76.94;99368.69;1712418;81;21248;-55
2021/09/13 05:25:50;;;;;;;7.03;6.35;;;;;;;14.47;76.94;99368.69;1711480;81;21615;-55
2021/09/13 05:28:17;;;;;;;8.48;5.83;;;;;;;14.60;76.85;99365.52;1716270;81;22451;-54
2021/09/13 05:30:44;;;;;;;8.80;6.65;;;;;;;14.73;76.80;99360.45;1713619;81;21345;-53
2021/09/13 05:33:12;;;;;;;8.08;6.08;;;;;;;14.88;76.36;99361.72;1714497;81;21086;-55
2021/09/13 05:35:39;;;;;;;8.83;6.53;;;;;;;15.02;76.14;99363.80;1710675;81;21150;-53
2021/09/13 05:38:09;;;;;;;8.48;6.85;;;;;;;15.18;75.89;99362.67;1712922;81;21070;-53
2021/09/13 05:40:39;;;;;;;11.38;7.25;;;;;;;15.33;75.92;99363.77;1715322;80;21563;-55
2021/09/13 05:43:07;;;;;;;6.67;5.97;;;;;;;15.49;75.43;99360.28;1723520;80;21548;-54
2021/09/13 05:45:35;;;;;;;7.78;6.95;;;;;;;15.65;74.91;99355.96;1719097;80;21551;-55
2021/09/13 05:48:03;;;;;;;10.65;6.65;;;;;;;15.80;74.71;99350.77;1717038;80;21055;-54
2021/09/13 05:50:30;;;;;;;10.35;8.38;;;;;;;15.96;74.30;99360.44;1723218;80;21521;-53
2021/09/13 05:52:57;;;;;;;10.25;6.78;;;;;;;16.11;73.64;99356.55;1716938;80;21515;-52
2021/09/13 05:55:26;;;;;;;8.50;6.78;;;;;;;16.25;72.96;99358.55;1720905;80;21144;-53
2021/09/13 05:57:52;;;;;;;12.23;7.47;;;;;;;16.41;72.32;99360.10;1720685;80;21438;-56
2021/09/13 06:00:19;;;;;;;11.15;6.15;;;;;;;16.54;71.61;99356.29;1720043;80;21094;-54
2021/09/13 06:02:46;;;;;;;10.70;7.92;;;;;;;16.69;71.12;99350.65;1723036;80;20979;-55
2021/09/13 06:07:48;;;;;;;11.25;7.85;;;;;;;17.00;70.14;99347.22;1849952;75;26540;-53
2021/09/13 06:10:16;;;;;;;9.80;7.20;;;;;;;17.08;69.93;99360.19;1809065;77;21062;-53
2021/09/13 06:12:43;;;;;;;9.83;6.72;;;;;;;17.18;69.52;99357.09;1812119;77;20995;-54
2021/09/13 06:15:10;;;;;;;9.55;7.15;;;;;;;17.28;69.32;99356.20;1814296;77;21591;-52
2021/09/13 06:17:40;;;;;;;6.60;5.90;;;;;;;17.39;68.91;99346.67;1773696;78;20985;-53
2021/09/13 06:20:10;;;;;;;6.17;5.58;;;;;;;17.52;68.64;99349.75;1773688;78;20989;-54
2021/09/13 06:22:38;;;;;;;10.08;6.53;;;;;;;17.61;67.97;99352.54;1779043;78;21525;-55
2021/09/13 06:25:08;;;;;;;12.18;7.25;;;;;;;17.74;67.62;99355.15;1742985;80;21206;-52
2021/09/13 06:27:36;;;;;;;12.63;7.72;;;;;;;17.84;67.27;99349.30;1765318;78;20957;-53
2021/09/13 06:30:04;;;;;;;13.85;7.55;;;;;;;17.94;66.86;99357.07;1733394;78;20941;-53
2021/09/13 06:32:31;;;;;;;7.30;6.30;;;;;;;18.05;66.50;99352.91;1740149;78;21436;-54
2021/09/13 06:34:57;;;;;;;10.03;6.72;;;;;;;18.14;65.72;99354.85;1700355;81;20930;-54
2021/09/13 06:37:25;;;;;;;9.28;6.58;;;;;;;18.25;65.12;99356.66;1727210;80;21082;-55
2021/09/13 06:39:57;;;;;;;9.20;7.53;;;;;;;18.34;64.59;99360.45;1732989;80;20985;-53
2021/09/13 06:42:20;;;;;;;11.35;7.17;;;;;;;18.42;63.82;99354.71;1727841;80;21527;-54
2021/09/13 06:44:50;;;;;;;7.60;6.75;;;;;;;18.50;63.43;99351.31;1728475;80;20883;-52
2021/09/13 06:47:50;;;;;;;8.55;6.67;;;;;;;18.58;62.87;99349.31;1730377;80;20990;-53
2021/09/13 06:49:51;;;;;;;12.25;8.05;;;;;;;18.64;62.16;99350.99;1732123;80;21166;-53
2021/09/13 06:52:17;;;;;;;15.78;7.00;;;;;;;18.73;61.82;99356.14;1741772;80;20978;-52
2021/09/13 06:54:44;;;;;;;10.20;6.50;;;;;;;18.79;61.53;99353.77;1721776;81;20961;-52
2021/09/13 06:57:11;;;;;;;7.10;5.97;;;;;;;18.87;61.02;99346.27;1720936;81;20906;-52
2021/09/13 06:59:37;;;;;;;8.40;5.72;;;;;;;18.95;60.86;99354.63;1736360;80;20922;-51
2021/09/13 07:02:05;;;;;;;6.37;5.78;;;;;;;19.03;60.45;99351.21;1721949;81;21343;-52
2021/09/13 07:04:32;;;;;;;9.73;3.87;;;;;;;19.10;60.32;99353.25;1672667;81;20985;-52
2021/09/13 07:06:58;;;;;;;6.37;5.25;;;;;;;19.19;60.02;99350.20;1722322;81;20937;-52
2021/09/13 07:09:24;;;;;;;8.33;5.15;;;;;;;19.28;60.27;99353.46;1720847;81;21442;-51
2021/09/13 07:11:52;;;;;;;6.12;5.40;;;;;;;19.36;59.83;99352.27;1720692;81;21514;-52
2021/09/13 07:14:20;;;;;;;11.50;7.92;;;;;;;19.44;59.32;99350.20;1717380;81;21961;-52
2021/09/13 07:16:47;;;;;;;10.45;6.33;;;;;;;19.53;59.23;99345.30;1717345;81;21296;-53
2021/09/13 07:19:15;;;;;;;13.08;6.90;;;;;;;19.62;59.43;99351.28;1717041;81;21159;-54
2021/09/13 07:21:41;;;;;;;8.10;6.15;;;;;;;19.71;59.18;99348.21;1735308;80;21178;-53
2021/09/13 07:24:09;;;;;;;10.20;6.37;;;;;;;19.78;58.73;99348.00;1717437;81;21819;-55
2021/09/13 07:26:35;;;;;;;7.28;6.42;;;;;;;19.87;58.85;99347.16;1719030;81;21092;-56
2021/09/13 07:29:03;;;;;;;8.60;6.90;;;;;;;19.95;58.44;99350.89;1713312;81;21108;-56
2021/09/13 07:31:30;;;;;;;6.00;5.45;;;;;;;20.04;58.23;99357.37;1715783;81;21992;-56
2021/09/13 07:33:57;;;;;;;8.90;6.60;;;;;;;20.13;57.95;99344.22;1716755;81;21132;-56
2021/09/13 07:36:23;;;;;;;10.13;5.47;;;;;;;20.22;57.59;99348.81;1718690;81;21057;-54
2021/09/13 07:38:51;;;;;;;8.65;5.58;;;;;;;20.30;57.42;99350.82;1717619;81;22093;-54
2021/09/13 07:41:17;;;;;;;12.07;6.08;;;;;;;20.38;57.49;99351.85;1719054;81;21310;-54
2021/09/13 07:43:44;;;;;;;11.45;6.80;;;;;;;20.47;57.02;99362.92;1722147;81;21481;-54
2021/09/13 07:46:10;;;;;;;6.47;5.85;;;;;;;20.54;56.99;99357.22;1717690;81;22352;-56
2021/09/13 07:48:37;;;;;;;10.43;6.08;;;;;;;20.62;56.70;99354.61;1718359;81;21092;-56
2021/09/13 07:51:03;;;;;;;11.40;6.75;;;;;;;20.69;56.17;99354.38;1720513;81;21109;-56
2021/09/13 07:53:31;;;;;;;9.48;6.42;;;;;;;20.75;56.76;99353.81;1733034;80;21405;-55
2021/09/13 07:55:57;;;;;;;12.65;7.20;;;;;;;20.85;56.99;99356.48;1737645;80;21472;-54
2021/09/13 07:58:23;;;;;;;8.18;6.30;;;;;;;20.95;56.48;99355.95;1717969;81;21640;-55
2021/09/13 08:00:50;;;;;;;7.30;6.37;;;;;;;21.02;56.28;99353.84;1717261;81;21528;-56
2021/09/13 08:03:16;;;;;;;9.48;6.72;;;;;;;21.09;56.04;99352.26;1719992;81;21616;-54
2021/09/13 08:05:43;;;;;;;6.85;5.42;;;;;;;21.17;56.37;99354.27;1715287;81;21040;-56
2021/09/13 08:08:12;;;;;;;7.50;6.00;;;;;;;21.25;56.33;99354.88;1718394;81;21150;-56
2021/09/13 08:10:39;;;;;;;6.08;4.53;;;;;;;21.34;56.42;99356.71;1717709;81;21739;-56
2021/09/13 08:13:06;;;;;;;5.62;4.97;;;;;;;21.43;55.16;99347.59;1746131;80;21106;-54
2021/09/13 08:15:32;;;;;;;6.60;5.17;;;;;;;21.50;54.51;99350.93;1741616;80;23071;-55
2021/09/13 08:18:01;;;;;;;7.15;4.87;;;;;;;21.57;53.70;99347.06;1741852;80;21323;-55
2021/09/13 08:20:28;;;;;;;5.87;4.22;;;;;;;21.64;53.63;99348.17;1716086;81;21088;-57
2021/09/13 08:22:56;;;;;;;4.22;3.92;;;;;;;21.72;54.08;99350.13;1745164;80;21102;-55
2021/09/13 08:25:24;;;;;;;6.97;3.98;;;;;;;21.81;54.09;99347.84;1746288;80;20920;-56
2021/09/13 08:27:56;;;;;;;7.47;4.17;;;;;;;21.90;52.86;99342.80;1737295;80;21507;-56
2021/09/13 08:30:22;;;;;;;5.85;4.50;;;;;;;21.99;52.37;99356.11;1719374;81;21071;-56
2021/09/13 08:32:48;;;;;;;6.62;4.00;;;;;;;22.05;52.66;99348.62;1720667;81;21115;-55
2021/09/13 08:35:14;;;;;;;5.85;3.92;;;;;;;22.12;52.56;99337.37;1745994;80;21003;-54
2021/09/13 08:37:41;;;;;;;4.45;3.42;;;;;;;22.18;52.01;99340.38;1717352;81;21619;-56
2021/09/13 08:40:09;;;;;;;5.20;4.05;;;;;;;22.25;51.62;99340.60;1731449;80;22870;-55
2021/09/13 08:42:47;;;;;;;4.10;3.55;;;;;;;22.31;51.15;99337.22;1730714;80;21040;-56
2021/09/13 08:45:18;;;;;;;6.42;4.60;;;;;;;22.36;50.56;99338.13;1725098;80;21064;-54
2021/09/13 08:48:06;;;;;;;4.12;3.52;;;;;;;22.41;50.32;99337.99;1744788;80;20929;-55
2021/09/13 08:52:55;;;;;;;4.85;4.45;;;;;;;22.57;50.47;99334.00;1745106;80;21076;-55
2021/09/13 08:55:22;;;;;;;7.78;3.92;;;;;;;22.67;50.06;99339.90;1744827;80;21380;-55
2021/09/13 08:57:50;;;;;;;8.23;3.80;;;;;;;22.74;50.27;99335.01;1743489;80;21060;-57
2021/09/13 09:00:19;;;;;;;5.10;4.70;;;;;;;22.81;50.27;99331.97;1748403;80;21358;-55
2021/09/13 09:02:46;;;;;;;4.33;3.90;;;;;;;22.90;49.57;99338.36;1742317;80;21528;-55
2021/09/13 09:05:13;;;;;;;4.17;3.90;;;;;;;22.95;48.88;99339.63;1720859;81;21134;-56
2021/09/13 09:07:54;;;;;;;6.08;3.60;;;;;;;22.99;48.51;99336.88;1719983;81;21948;-57
2021/09/13 09:10:27;;;;;;;3.58;3.02;;;;;;;23.03;48.97;99334.69;1722638;81;21416;-56
2021/09/13 09:13:13;;;;;;;5.05;3.08;;;;;;;23.09;47.78;99334.53;1724976;80;21004;-57
2021/09/13 09:16:00;;;;;;;4.08;3.10;;;;;;;23.11;47.11;99336.10;1722597;81;21136;-56
2021/09/13 09:18:47;;;;;;;6.00;3.52;;;;;;;23.13;46.66;99331.31;1723820;81;21347;-56
2021/09/13 09:21:31;;;;;;;7.92;4.10;;;;;;;23.13;46.27;99328.57;1720038;81;21537;-55
2021/09/13 09:24:04;;;;;;;4.45;3.47;;;;;;;23.16;46.34;99330.10;1724279;81;21391;-56
2021/09/13 09:26:31;;;;;;;5.78;4.30;;;;;;;23.18;46.52;99329.44;1721800;81;21000;-56
2021/09/13 09:29:00;;;;;;;7.75;5.22;;;;;;;23.22;46.90;99323.98;1722753;81;20976;-56
2021/09/13 09:31:44;;;;;;;6.25;4.15;;;;;;;23.27;47.82;99318.33;1743810;80;20956;-56
2021/09/13 09:34:18;;;;;;;5.95;4.33;;;;;;;23.34;47.13;99315.77;1733438;80;20957;-56
2021/09/13 09:37:12;;;;;;;;;;;;;;;23.40;46.80;99315.97;1735237;80;20898;-56
2021/09/13 09:39:55;;;;;;;4.97;3.00;;;;;;;23.44;46.56;99312.39;1721847;80;20130;-55
2021/09/13 09:42:35;;;;;;;5.72;3.15;;;;;;;23.49;46.25;99317.40;1698363;80;20941;-57
2021/09/13 09:45:19;;;;;;;3.62;2.65;;;;;;;23.54;45.55;99317.27;1730045;80;21421;-55
2021/09/13 09:47:49;;;;;;;4.80;3.08;;;;;;;23.57;44.79;99320.17;1734518;80;20941;-57
2021/09/13 09:50:18;;;;;;;5.75;3.60;;;;;;;23.58;44.75;99317.27;1682590;80;20905;-55
2021/09/13 09:52:45;;;;;;;5.78;2.55;;;;;;;23.61;44.49;99310.07;1727283;80;21516;-56
2021/09/13 09:55:19;;;;;;;4.62;3.37;;;;;;;23.64;44.20;99309.75;1734732;80;21415;-57
2021/09/13 09:58:13;;;;;;;4.75;3.30;;;;;;;23.67;43.39;99310.77;1729682;81;21782;-57
2021/09/13 10:00:39;;;;;;;3.33;3.02;;;;;;;23.68;43.15;99312.48;1729984;80;20901;-58
2021/09/13 10:03:06;;;;;;;5.12;2.92;;;;;;;23.70;43.68;99313.70;1734413;80;20984;-56
2021/09/13 10:05:33;;;;;;;4.25;3.47;;;;;;;23.73;43.37;99307.34;1731895;80;20882;-56
2021/09/13 10:07:59;;;;;;;4.35;2.62;;;;;;;23.76;42.99;99302.89;1728328;81;20953;-56
2021/09/13 10:10:29;;;;;;;4.55;3.27;;;;;;;23.79;43.15;99309.95;1721028;81;21314;-56
2021/09/13 10:13:01;;;;;;;2.55;2.35;;;;;;;23.83;42.49;99305.81;1723633;81;20977;-57
2021/09/13 10:15:28;;;;;;;5.03;2.50;;;;;;;23.83;42.13;99301.69;1723772;81;20882;-56
2021/09/13 10:17:54;;;;;;;4.25;3.52;;;;;;;23.85;42.49;99306.52;1722673;81;21084;-56
2021/09/13 10:20:24;;;;;;;4.08;3.77;;;;;;;23.87;42.50;99304.97;1725618;81;21076;-55
2021/09/13 10:22:54;;;;;;;4.53;3.25;;;;;;;23.89;42.18;99298.80;1722968;81;21135;-55
2021/09/13 10:25:20;;;;;;;4.10;3.58;;;;;;;23.90;42.46;99290.91;1697178;81;21106;-57
2021/09/13 10:27:47;;;;;;;5.95;4.15;;;;;;;23.93;42.73;99292.78;1720377;81;21130;-57
2021/09/13 10:30:17;;;;;;;3.20;2.60;;;;;;;23.98;43.29;99289.02;1720186;81;21514;-57
2021/09/13 10:32:48;;;;;;;4.70;3.58;;;;;;;24.03;42.44;99293.48;1719508;81;21627;-53
2021/09/13 10:35:16;;;;;;;3.80;3.58;;;;;;;24.06;42.36;99286.80;1720359;81;22757;-57
2021/09/13 10:37:50;;;;;;;6.85;4.72;;;;;;;24.10;43.20;99286.27;1725518;81;20886;-56
2021/09/13 10:40:28;;;;;;;3.92;3.60;;;;;;;24.17;42.36;99290.56;1724448;81;21064;-57
2021/09/13 10:42:59;;;;;;;5.80;3.40;;;;;;;24.18;42.31;99284.55;1722681;81;22485;-55
2021/09/13 10:45:41;;;;;;;10.50;4.83;;;;;;;24.19;43.09;99288.50;1692865;81;21152;-55
2021/09/13 10:48:22;;;;;;;5.92;4.40;;;;;;;24.21;42.50;99279.61;1720194;81;21449;-56
2021/09/13 10:50:54;;;;;;;4.20;3.80;;;;;;;24.21;42.88;99272.73;1692322;81;21076;-57
2021/09/13 10:53:27;;;;;;;7.03;3.50;;;;;;;24.24;43.08;99268.78;1720102;81;21558;-57
2021/09/13 10:56:04;;;;;;;5.75;4.33;;;;;;;24.28;42.86;99269.63;1720739;81;21076;-57
2021/09/13 10:58:44;;;;;;;3.98;3.62;;;;;;;24.33;43.28;99267.75;1718032;81;21055;-57
2021/09/13 11:01:23;;;;;;;4.28;3.60;;;;;;;24.38;42.96;99266.19;1722959;81;21094;-55
2021/09/13 11:03:54;;;;;;;9.03;4.37;;;;;;;24.43;43.19;99265.66;1718933;81;21592;-56
2021/09/13 11:06:26;;;;;;;5.03;4.22;;;;;;;24.49;43.03;99263.61;1721984;81;21090;-57
2021/09/13 11:08:59;;;;;;;6.25;4.17;;;;;;;24.51;42.86;99259.63;1718033;81;21084;-57
2021/09/13 11:11:29;;;;;;;9.80;4.25;;;;;;;24.54;42.94;99259.80;1711976;81;21135;-57
2021/09/13 11:14:07;;;;;;;8.55;4.53;;;;;;;24.57;42.90;99253.09;1744441;80;21569;-57
2021/09/13 11:16:46;;;;;;;5.60;4.28;;;;;;;24.59;42.09;99255.13;1711006;81;21090;-56
2021/09/13 11:19:15;;;;;;;7.30;5.03;;;;;;;24.58;42.81;99250.17;1729214;80;21812;-55
2021/09/13 11:21:48;;;;;;;6.72;3.85;;;;;;;24.59;42.43;99254.62;1725969;80;22429;-55
2021/09/13 11:24:20;;;;;;;6.85;4.37;;;;;;;24.60;42.75;99252.73;1709950;81;21119;-57
2021/09/13 11:26:54;;;;;;;5.78;4.80;;;;;;;24.62;42.33;99249.29;1742160;80;21088;-56
2021/09/13 11:29:33;;;;;;;10.72;4.22;;;;;;;24.63;42.13;99248.27;1716557;81;21112;-55
2021/09/13 11:32:07;;;;;;;3.25;3.05;;;;;;;24.65;42.18;99247.58;1738999;80;21091;-54
2021/09/13 11:34:38;;;;;;;4.87;3.98;;;;;;;24.65;41.59;99243.45;1715137;81;21612;-54
2021/09/13 11:37:20;;;;;;;6.60;3.90;;;;;;;24.63;41.27;99242.24;1742139;80;21027;-57
2021/09/13 11:39:59;;;;;;;3.87;3.45;;;;;;;24.63;41.09;99235.36;1733355;80;21183;-57
2021/09/13 11:42:28;;;;;;;5.97;4.00;;;;;;;24.62;41.66;99232.78;1733258;80;20933;-57
2021/09/13 11:45:02;;;;;;;6.90;4.58;;;;;;;24.63;40.78;99233.13;1730251;80;21588;-56
2021/09/13 11:47:31;;;;;;;4.17;3.15;;;;;;;24.63;40.72;99231.75;1726992;80;21502;-56
2021/09/13 11:50:01;;;;;;;3.62;3.33;;;;;;;24.63;41.63;99227.11;1731307;80;21558;-56
2021/09/13 11:52:30;;;;;;;5.08;3.75;;;;;;;24.64;41.64;99229.34;1729604;80;21464;-56